sensor_id;sensor_type;location;lat;lon;timestamp;temperature;humidity
23507;DHT22;11930;53.076;18.250;2022-08-19T00:01:25;19.10;99.90
23507;DHT22;11930;53.076;18.250;2022-08-19T00:03:51;19.10;99.90
23507;DHT22;11930;53.076;18.250;2022-08-19T00:06:17;19.10;99.90
23507;DHT22;11930;53.076;18.250;2022-08-19T00:08:43;19.00;99.90
23507;DHT22;11930;53.076;18.250;2022-08-19T00:11:10;19.00;99.90
23507;DHT22;11930;53.076;18.250;2022-08-19T00:13:36;19.00;99.90
23507;DHT22;11930;53.076;18.250;2022-08-19T00:16:04;19.00;99.90
23507;DHT22;11930;53.076;18.250;2022-08-19T00:18:32;19.00;99.90
23507;DHT22;11930;53.076;18.250;2022-08-19T00:20:58;19.00;99.90
23507;DHT22;11930;53.076;18.250;2022-08-19T00:23:26;18.90;99.90
23507;DHT22;11930;53.076;18.250;2022-08-19T00:25:52;18.90;99.90
23507;DHT22;11930;53.076;18.250;2022-08-19T00:28:18;18.90;99.90
23507;DHT22;11930;53.076;18.250;2022-08-19T00:30:46;18.80;99.90
23507;DHT22;11930;53.076;18.250;2022-08-19T00:33:12;18.80;99.90
23507;DHT22;11930;53.076;18.250;2022-08-19T00:35:39;18.80;99.90
23507;DHT22;11930;53.076;18.250;2022-08-19T00:38:05;18.80;99.90
23507;DHT22;11930;53.076;18.250;2022-08-19T00:40:32;18.70;99.90
23507;DHT22;11930;53.076;18.250;2022-08-19T00:42:58;18.70;99.90
23507;DHT22;11930;53.076;18.250;2022-08-19T00:45:27;18.60;99.90
23507;DHT22;11930;53.076;18.250;2022-08-19T00:47:56;18.60;99.90
23507;DHT22;11930;53.076;18.250;2022-08-19T00:50:22;18.60;99.90
23507;DHT22;11930;53.076;18.250;2022-08-19T00:52:50;18.60;99.90
23507;DHT22;11930;53.076;18.250;2022-08-19T00:55:20;18.60;99.90
23507;DHT22;11930;53.076;18.250;2022-08-19T00:57:56;18.60;99.90
23507;DHT22;11930;53.076;18.250;2022-08-19T01:00:25;18.60;99.90
23507;DHT22;11930;53.076;18.250;2022-08-19T01:02:52;18.60;99.90
23507;DHT22;11930;53.076;18.250;2022-08-19T01:05:21;18.50;99.90
23507;DHT22;11930;53.076;18.250;2022-08-19T01:07:48;18.50;99.90
23507;DHT22;11930;53.076;18.250;2022-08-19T01:10:19;18.50;99.90
23507;DHT22;11930;53.076;18.250;2022-08-19T01:12:47;18.50;99.90
23507;DHT22;11930;53.076;18.250;2022-08-19T01:15:16;18.50;99.90
23507;DHT22;11930;53.076;18.250;2022-08-19T01:17:44;18.50;99.90
23507;DHT22;11930;53.076;18.250;2022-08-19T01:20:16;18.40;99.90
23507;DHT22;11930;53.076;18.250;2022-08-19T01:22:47;18.50;99.90
23507;DHT22;11930;53.076;18.250;2022-08-19T01:25:15;18.40;99.90
23507;DHT22;11930;53.076;18.250;2022-08-19T01:27:44;18.40;99.90
23507;DHT22;11930;53.076;18.250;2022-08-19T01:30:18;18.40;99.90
23507;DHT22;11930;53.076;18.250;2022-08-19T01:32:44;18.40;99.90
23507;DHT22;11930;53.076;18.250;2022-08-19T01:35:12;18.30;99.90
23507;DHT22;11930;53.076;18.250;2022-08-19T01:37:51;18.30;99.90
23507;DHT22;11930;53.076;18.250;2022-08-19T01:40:19;18.30;99.90
23507;DHT22;11930;53.076;18.250;2022-08-19T01:42:49;18.20;99.90
23507;DHT22;11930;53.076;18.250;2022-08-19T01:45:17;18.20;99.90
23507;DHT22;11930;53.076;18.250;2022-08-19T01:47:43;18.20;99.90
23507;DHT22;11930;53.076;18.250;2022-08-19T01:50:11;18.20;99.90
23507;DHT22;11930;53.076;18.250;2022-08-19T01:52:39;18.20;99.90
23507;DHT22;11930;53.076;18.250;2022-08-19T01:55:07;18.20;99.90
23507;DHT22;11930;53.076;18.250;2022-08-19T01:57:34;18.10;99.90
23507;DHT22;11930;53.076;18.250;2022-08-19T02:00:01;18.10;99.90
23507;DHT22;11930;53.076;18.250;2022-08-19T02:02:37;18.00;99.90
23507;DHT22;11930;53.076;18.250;2022-08-19T02:05:04;18.10;99.90
23507;DHT22;11930;53.076;18.250;2022-08-19T02:07:30;18.10;99.90
23507;DHT22;11930;53.076;18.250;2022-08-19T02:09:58;18.10;99.90
23507;DHT22;11930;53.076;18.250;2022-08-19T02:12:24;18.10;99.90
23507;DHT22;11930;53.076;18.250;2022-08-19T02:14:50;18.00;99.90
23507;DHT22;11930;53.076;18.250;2022-08-19T02:17:16;18.10;99.90
23507;DHT22;11930;53.076;18.250;2022-08-19T02:19:42;18.10;99.90
23507;DHT22;11930;53.076;18.250;2022-08-19T02:22:08;18.10;99.90
23507;DHT22;11930;53.076;18.250;2022-08-19T02:24:34;18.00;99.90
23507;DHT22;11930;53.076;18.250;2022-08-19T02:27:00;18.00;99.90
23507;DHT22;11930;53.076;18.250;2022-08-19T02:29:26;18.00;99.90
23507;DHT22;11930;53.076;18.250;2022-08-19T02:31:52;18.00;99.90
23507;DHT22;11930;53.076;18.250;2022-08-19T02:34:18;17.90;99.90
23507;DHT22;11930;53.076;18.250;2022-08-19T02:36:44;17.90;99.90
23507;DHT22;11930;53.076;18.250;2022-08-19T02:39:10;17.90;99.90
23507;DHT22;11930;53.076;18.250;2022-08-19T02:41:37;17.90;99.90
23507;DHT22;11930;53.076;18.250;2022-08-19T02:44:03;17.90;99.90
23507;DHT22;11930;53.076;18.250;2022-08-19T02:46:32;17.90;99.90
23507;DHT22;11930;53.076;18.250;2022-08-19T02:49:03;17.90;99.90
23507;DHT22;11930;53.076;18.250;2022-08-19T02:51:35;17.90;99.90
23507;DHT22;11930;53.076;18.250;2022-08-19T02:54:02;17.80;99.90
23507;DHT22;11930;53.076;18.250;2022-08-19T02:56:30;17.90;99.90
23507;DHT22;11930;53.076;18.250;2022-08-19T02:58:57;17.80;99.90
23507;DHT22;11930;53.076;18.250;2022-08-19T03:01:29;17.80;99.90
23507;DHT22;11930;53.076;18.250;2022-08-19T03:03:56;17.80;99.90
23507;DHT22;11930;53.076;18.250;2022-08-19T03:06:23;17.80;99.90
23507;DHT22;11930;53.076;18.250;2022-08-19T03:08:49;17.80;99.90
23507;DHT22;11930;53.076;18.250;2022-08-19T03:13:46;17.70;99.90
23507;DHT22;11930;53.076;18.250;2022-08-19T03:16:15;17.80;99.90
23507;DHT22;11930;53.076;18.250;2022-08-19T03:18:41;17.80;99.90
23507;DHT22;11930;53.076;18.250;2022-08-19T03:21:07;17.90;99.90
23507;DHT22;11930;53.076;18.250;2022-08-19T03:23:34;17.90;99.90
23507;DHT22;11930;53.076;18.250;2022-08-19T03:26:04;18.00;99.90
23507;DHT22;11930;53.076;18.250;2022-08-19T03:28:31;18.10;99.90
23507;DHT22;11930;53.076;18.250;2022-08-19T03:31:10;18.20;99.90
23507;DHT22;11930;53.076;18.250;2022-08-19T03:33:37;18.20;99.90
23507;DHT22;11930;53.076;18.250;2022-08-19T03:38:43;18.20;99.90
23507;DHT22;11930;53.076;18.250;2022-08-19T03:41:13;18.30;99.90
23507;DHT22;11930;53.076;18.250;2022-08-19T03:43:41;18.30;99.90
23507;DHT22;11930;53.076;18.250;2022-08-19T03:46:11;18.40;99.90
23507;DHT22;11930;53.076;18.250;2022-08-19T03:48:40;18.50;99.90
23507;DHT22;11930;53.076;18.250;2022-08-19T03:51:07;18.60;99.90
23507;DHT22;11930;53.076;18.250;2022-08-19T03:53:34;18.70;99.90
23507;DHT22;11930;53.076;18.250;2022-08-19T03:56:01;18.80;99.90
23507;DHT22;11930;53.076;18.250;2022-08-19T03:58:30;19.00;99.90
23507;DHT22;11930;53.076;18.250;2022-08-19T04:00:57;19.10;99.90
23507;DHT22;11930;53.076;18.250;2022-08-19T04:03:26;19.30;99.90
23507;DHT22;11930;53.076;18.250;2022-08-19T04:05:53;19.50;99.90
23507;DHT22;11930;53.076;18.250;2022-08-19T04:08:19;19.80;99.90
23507;DHT22;11930;53.076;18.250;2022-08-19T04:10:47;20.10;99.90
23507;DHT22;11930;53.076;18.250;2022-08-19T04:13:17;20.40;99.90
23507;DHT22;11930;53.076;18.250;2022-08-19T04:15:45;20.70;99.90
23507;DHT22;11930;53.076;18.250;2022-08-19T04:18:12;20.90;99.90
23507;DHT22;11930;53.076;18.250;2022-08-19T04:20:43;21.10;99.90
23507;DHT22;11930;53.076;18.250;2022-08-19T04:23:11;21.30;99.90
23507;DHT22;11930;53.076;18.250;2022-08-19T04:25:39;21.40;99.90
23507;DHT22;11930;53.076;18.250;2022-08-19T04:28:06;21.40;99.90
23507;DHT22;11930;53.076;18.250;2022-08-19T04:30:44;21.50;99.90
23507;DHT22;11930;53.076;18.250;2022-08-19T04:33:11;21.50;99.90
23507;DHT22;11930;53.076;18.250;2022-08-19T04:35:39;21.50;99.90
23507;DHT22;11930;53.076;18.250;2022-08-19T04:38:06;21.70;99.90
23507;DHT22;11930;53.076;18.250;2022-08-19T04:40:33;21.90;99.90
23507;DHT22;11930;53.076;18.250;2022-08-19T04:43:18;21.90;99.90
23507;DHT22;11930;53.076;18.250;2022-08-19T04:45:45;22.00;99.90
23507;DHT22;11930;53.076;18.250;2022-08-19T04:48:12;22.20;99.90
23507;DHT22;11930;53.076;18.250;2022-08-19T04:50:42;22.30;99.90
23507;DHT22;11930;53.076;18.250;2022-08-19T04:53:09;22.50;99.90
23507;DHT22;11930;53.076;18.250;2022-08-19T04:55:39;22.60;99.90
23507;DHT22;11930;53.076;18.250;2022-08-19T04:58:06;22.60;99.90
23507;DHT22;11930;53.076;18.250;2022-08-19T05:00:32;22.70;99.90
23507;DHT22;11930;53.076;18.250;2022-08-19T05:02:58;22.60;99.90
23507;DHT22;11930;53.076;18.250;2022-08-19T05:05:24;22.50;99.90
23507;DHT22;11930;53.076;18.250;2022-08-19T05:07:50;22.40;99.90
23507;DHT22;11930;53.076;18.250;2022-08-19T05:10:16;22.40;99.90
23507;DHT22;11930;53.076;18.250;2022-08-19T05:12:42;22.40;99.90
23507;DHT22;11930;53.076;18.250;2022-08-19T05:15:09;22.50;99.90
23507;DHT22;11930;53.076;18.250;2022-08-19T05:17:35;22.60;99.90
23507;DHT22;11930;53.076;18.250;2022-08-19T05:20:02;22.70;99.90
23507;DHT22;11930;53.076;18.250;2022-08-19T05:22:47;22.80;99.90
23507;DHT22;11930;53.076;18.250;2022-08-19T05:25:17;23.00;99.90
23507;DHT22;11930;53.076;18.250;2022-08-19T05:27:44;23.10;99.90
23507;DHT22;11930;53.076;18.250;2022-08-19T05:30:11;23.30;99.90
23507;DHT22;11930;53.076;18.250;2022-08-19T05:32:39;23.30;99.90
23507;DHT22;11930;53.076;18.250;2022-08-19T05:35:05;23.30;99.90
23507;DHT22;11930;53.076;18.250;2022-08-19T05:37:33;23.20;99.90
23507;DHT22;11930;53.076;18.250;2022-08-19T05:39:59;23.30;99.90
23507;DHT22;11930;53.076;18.250;2022-08-19T05:42:25;23.50;99.90
23507;DHT22;11930;53.076;18.250;2022-08-19T05:44:52;23.70;99.90
23507;DHT22;11930;53.076;18.250;2022-08-19T05:47:19;24.00;99.90
23507;DHT22;11930;53.076;18.250;2022-08-19T05:49:45;24.10;99.90
23507;DHT22;11930;53.076;18.250;2022-08-19T05:52:14;24.20;99.90
23507;DHT22;11930;53.076;18.250;2022-08-19T05:54:41;24.30;99.90
23507;DHT22;11930;53.076;18.250;2022-08-19T05:57:09;24.50;99.90
23507;DHT22;11930;53.076;18.250;2022-08-19T05:59:35;24.50;99.90
23507;DHT22;11930;53.076;18.250;2022-08-19T06:02:03;24.50;99.90
23507;DHT22;11930;53.076;18.250;2022-08-19T06:04:29;24.50;99.90
23507;DHT22;11930;53.076;18.250;2022-08-19T06:06:55;24.40;99.90
23507;DHT22;11930;53.076;18.250;2022-08-19T06:09:23;24.40;99.90
23507;DHT22;11930;53.076;18.250;2022-08-19T06:11:55;24.70;99.90
23507;DHT22;11930;53.076;18.250;2022-08-19T06:14:24;24.90;99.90
23507;DHT22;11930;53.076;18.250;2022-08-19T06:16:50;25.20;99.90
23507;DHT22;11930;53.076;18.250;2022-08-19T06:19:21;25.30;99.90
23507;DHT22;11930;53.076;18.250;2022-08-19T06:21:49;25.50;99.90
23507;DHT22;11930;53.076;18.250;2022-08-19T06:24:20;25.70;99.90
23507;DHT22;11930;53.076;18.250;2022-08-19T06:26:48;25.90;99.90
23507;DHT22;11930;53.076;18.250;2022-08-19T06:29:16;26.00;99.90
23507;DHT22;11930;53.076;18.250;2022-08-19T06:31:45;26.30;99.90
23507;DHT22;11930;53.076;18.250;2022-08-19T06:34:11;26.70;99.90
23507;DHT22;11930;53.076;18.250;2022-08-19T06:36:41;26.90;99.90
23507;DHT22;11930;53.076;18.250;2022-08-19T06:39:12;27.20;99.90
23507;DHT22;11930;53.076;18.250;2022-08-19T06:41:43;27.60;99.90
23507;DHT22;11930;53.076;18.250;2022-08-19T06:44:18;28.00;99.90
23507;DHT22;11930;53.076;18.250;2022-08-19T06:46:44;28.60;99.90
23507;DHT22;11930;53.076;18.250;2022-08-19T06:49:10;28.90;99.90
23507;DHT22;11930;53.076;18.250;2022-08-19T06:51:46;29.10;99.90
23507;DHT22;11930;53.076;18.250;2022-08-19T06:54:16;29.40;99.90
23507;DHT22;11930;53.076;18.250;2022-08-19T06:56:44;29.20;99.90
23507;DHT22;11930;53.076;18.250;2022-08-19T06:59:14;29.30;99.90
23507;DHT22;11930;53.076;18.250;2022-08-19T07:01:43;29.70;98.10
23507;DHT22;11930;53.076;18.250;2022-08-19T07:04:12;30.20;96.70
23507;DHT22;11930;53.076;18.250;2022-08-19T07:06:38;30.80;93.90
23507;DHT22;11930;53.076;18.250;2022-08-19T07:09:05;30.90;91.70
23507;DHT22;11930;53.076;18.250;2022-08-19T07:11:32;30.80;91.50
23507;DHT22;11930;53.076;18.250;2022-08-19T07:14:01;31.40;90.50
23507;DHT22;11930;53.076;18.250;2022-08-19T07:16:28;31.70;84.70
23507;DHT22;11930;53.076;18.250;2022-08-19T07:18:54;31.90;82.60
23507;DHT22;11930;53.076;18.250;2022-08-19T07:21:26;32.10;81.80
23507;DHT22;11930;53.076;18.250;2022-08-19T07:23:54;32.00;80.60
23507;DHT22;11930;53.076;18.250;2022-08-19T07:26:27;32.30;78.90
23507;DHT22;11930;53.076;18.250;2022-08-19T07:28:54;32.90;75.10
23507;DHT22;11930;53.076;18.250;2022-08-19T07:31:22;33.00;74.10
23507;DHT22;11930;53.076;18.250;2022-08-19T07:33:50;32.90;74.20
23507;DHT22;11930;53.076;18.250;2022-08-19T07:36:24;33.30;73.10
23507;DHT22;11930;53.076;18.250;2022-08-19T07:38:51;33.40;71.50
23507;DHT22;11930;53.076;18.250;2022-08-19T07:41:25;33.60;70.40
23507;DHT22;11930;53.076;18.250;2022-08-19T07:43:51;33.60;68.90
23507;DHT22;11930;53.076;18.250;2022-08-19T07:46:18;33.50;68.80
23507;DHT22;11930;53.076;18.250;2022-08-19T07:48:46;33.90;68.50
23507;DHT22;11930;53.076;18.250;2022-08-19T07:51:15;34.90;65.60
23507;DHT22;11930;53.076;18.250;2022-08-19T07:53:42;35.40;63.20
23507;DHT22;11930;53.076;18.250;2022-08-19T07:56:11;36.20;59.50
23507;DHT22;11930;53.076;18.250;2022-08-19T07:58:40;36.90;56.90
23507;DHT22;11930;53.076;18.250;2022-08-19T08:01:10;36.90;55.90
23507;DHT22;11930;53.076;18.250;2022-08-19T08:03:37;36.70;55.50
23507;DHT22;11930;53.076;18.250;2022-08-19T08:06:22;36.70;54.80
23507;DHT22;11930;53.076;18.250;2022-08-19T08:09:07;36.90;54.30
23507;DHT22;11930;53.076;18.250;2022-08-19T08:11:47;36.00;55.10
23507;DHT22;11930;53.076;18.250;2022-08-19T08:14:18;35.40;56.40
23507;DHT22;11930;53.076;18.250;2022-08-19T08:16:45;35.30;57.40
23507;DHT22;11930;53.076;18.250;2022-08-19T08:19:13;35.50;56.20
23507;DHT22;11930;53.076;18.250;2022-08-19T08:21:42;35.50;57.00
23507;DHT22;11930;53.076;18.250;2022-08-19T08:24:09;35.50;56.30
23507;DHT22;11930;53.076;18.250;2022-08-19T08:26:35;35.60;56.10
23507;DHT22;11930;53.076;18.250;2022-08-19T08:29:01;35.70;55.20
23507;DHT22;11930;53.076;18.250;2022-08-19T08:31:27;35.90;55.00
23507;DHT22;11930;53.076;18.250;2022-08-19T08:33:54;36.20;54.80
23507;DHT22;11930;53.076;18.250;2022-08-19T08:36:20;36.10;52.30
23507;DHT22;11930;53.076;18.250;2022-08-19T08:38:46;36.00;53.70
23507;DHT22;11930;53.076;18.250;2022-08-19T08:41:35;36.30;54.10
23507;DHT22;11930;53.076;18.250;2022-08-19T08:44:03;36.60;53.60
23507;DHT22;11930;53.076;18.250;2022-08-19T08:46:47;36.50;50.80
23507;DHT22;11930;53.076;18.250;2022-08-19T08:49:19;36.40;51.90
23507;DHT22;11930;53.076;18.250;2022-08-19T08:52:10;36.50;50.70
23507;DHT22;11930;53.076;18.250;2022-08-19T08:54:43;36.40;50.80
23507;DHT22;11930;53.076;18.250;2022-08-19T08:57:22;36.20;49.70
23507;DHT22;11930;53.076;18.250;2022-08-19T08:59:50;35.80;51.10
23507;DHT22;11930;53.076;18.250;2022-08-19T09:02:19;35.70;52.90
23507;DHT22;11930;53.076;18.250;2022-08-19T09:04:45;36.20;50.90
23507;DHT22;11930;53.076;18.250;2022-08-19T09:07:43;36.30;50.70
23507;DHT22;11930;53.076;18.250;2022-08-19T09:10:18;36.20;51.20
23507;DHT22;11930;53.076;18.250;2022-08-19T09:15:22;34.30;53.30
23507;DHT22;11930;53.076;18.250;2022-08-19T09:17:51;33.50;55.60
23507;DHT22;11930;53.076;18.250;2022-08-19T09:20:22;33.10;56.40
23507;DHT22;11930;53.076;18.250;2022-08-19T09:22:48;33.10;57.10
23507;DHT22;11930;53.076;18.250;2022-08-19T09:25:18;33.40;56.10
23507;DHT22;11930;53.076;18.250;2022-08-19T09:27:47;33.50;55.90
23507;DHT22;11930;53.076;18.250;2022-08-19T09:30:17;33.30;56.40
23507;DHT22;11930;53.076;18.250;2022-08-19T09:32:44;32.90;57.30
23507;DHT22;11930;53.076;18.250;2022-08-19T09:35:12;32.70;57.40
23507;DHT22;11930;53.076;18.250;2022-08-19T09:37:38;32.40;57.60
23507;DHT22;11930;53.076;18.250;2022-08-19T09:40:05;32.30;58.60
23507;DHT22;11930;53.076;18.250;2022-08-19T09:42:31;32.30;58.70
23507;DHT22;11930;53.076;18.250;2022-08-19T09:44:57;32.70;58.30
23507;DHT22;11930;53.076;18.250;2022-08-19T09:47:24;32.90;57.70
23507;DHT22;11930;53.076;18.250;2022-08-19T09:49:49;32.80;58.00
23507;DHT22;11930;53.076;18.250;2022-08-19T09:52:16;32.70;57.50
23507;DHT22;11930;53.076;18.250;2022-08-19T09:54:43;32.90;58.10
23507;DHT22;11930;53.076;18.250;2022-08-19T09:57:09;32.90;57.60
23507;DHT22;11930;53.076;18.250;2022-08-19T09:59:35;32.70;57.70
23507;DHT22;11930;53.076;18.250;2022-08-19T10:02:02;32.60;57.90
23507;DHT22;11930;53.076;18.250;2022-08-19T10:04:28;32.80;58.00
23507;DHT22;11930;53.076;18.250;2022-08-19T10:07:15;33.00;58.00
23507;DHT22;11930;53.076;18.250;2022-08-19T10:09:41;33.20;58.30
23507;DHT22;11930;53.076;18.250;2022-08-19T10:12:08;33.70;57.10
23507;DHT22;11930;53.076;18.250;2022-08-19T10:14:35;33.80;57.10
23507;DHT22;11930;53.076;18.250;2022-08-19T10:17:02;33.80;55.20
23507;DHT22;11930;53.076;18.250;2022-08-19T10:19:28;33.40;55.80
23507;DHT22;11930;53.076;18.250;2022-08-19T10:22:05;33.20;56.10
23507;DHT22;11930;53.076;18.250;2022-08-19T10:24:33;33.20;56.10
23507;DHT22;11930;53.076;18.250;2022-08-19T10:27:00;33.40;56.10
23507;DHT22;11930;53.076;18.250;2022-08-19T10:29:30;33.50;56.30
23507;DHT22;11930;53.076;18.250;2022-08-19T10:31:58;33.60;55.70
23507;DHT22;11930;53.076;18.250;2022-08-19T10:34:27;33.60;55.90
23507;DHT22;11930;53.076;18.250;2022-08-19T10:36:54;33.60;55.70
23507;DHT22;11930;53.076;18.250;2022-08-19T10:39:21;33.50;55.30
23507;DHT22;11930;53.076;18.250;2022-08-19T10:41:46;33.10;55.70
23507;DHT22;11930;53.076;18.250;2022-08-19T10:44:13;32.90;56.30
23507;DHT22;11930;53.076;18.250;2022-08-19T10:46:42;32.90;57.20
23507;DHT22;11930;53.076;18.250;2022-08-19T10:49:12;33.10;56.70
23507;DHT22;11930;53.076;18.250;2022-08-19T10:51:39;33.20;58.00
23507;DHT22;11930;53.076;18.250;2022-08-19T10:54:25;33.50;56.40
23507;DHT22;11930;53.076;18.250;2022-08-19T10:57:12;33.60;55.60
23507;DHT22;11930;53.076;18.250;2022-08-19T10:59:38;33.50;55.90
23507;DHT22;11930;53.076;18.250;2022-08-19T11:02:08;33.50;55.80
23507;DHT22;11930;53.076;18.250;2022-08-19T11:04:37;33.40;56.70
23507;DHT22;11930;53.076;18.250;2022-08-19T11:07:05;33.50;56.30
23507;DHT22;11930;53.076;18.250;2022-08-19T11:09:37;33.80;57.30
23507;DHT22;11930;53.076;18.250;2022-08-19T11:12:05;33.90;55.90
23507;DHT22;11930;53.076;18.250;2022-08-19T11:14:31;34.00;55.30
23507;DHT22;11930;53.076;18.250;2022-08-19T11:16:58;33.80;55.70
23507;DHT22;11930;53.076;18.250;2022-08-19T11:19:25;33.80;55.40
23507;DHT22;11930;53.076;18.250;2022-08-19T11:21:51;33.80;55.50
23507;DHT22;11930;53.076;18.250;2022-08-19T11:24:22;33.70;55.20
23507;DHT22;11930;53.076;18.250;2022-08-19T11:26:51;33.80;56.10
23507;DHT22;11930;53.076;18.250;2022-08-19T11:29:20;33.70;55.80
23507;DHT22;11930;53.076;18.250;2022-08-19T11:31:48;33.70;55.80
23507;DHT22;11930;53.076;18.250;2022-08-19T11:34:20;33.80;56.70
23507;DHT22;11930;53.076;18.250;2022-08-19T11:36:48;33.80;55.00
23507;DHT22;11930;53.076;18.250;2022-08-19T11:39:17;33.90;55.00
23507;DHT22;11930;53.076;18.250;2022-08-19T11:41:43;33.70;55.00
23507;DHT22;11930;53.076;18.250;2022-08-19T11:44:09;33.60;55.00
23507;DHT22;11930;53.076;18.250;2022-08-19T11:46:37;33.40;55.00
23507;DHT22;11930;53.076;18.250;2022-08-19T11:49:05;33.20;55.60
23507;DHT22;11930;53.076;18.250;2022-08-19T11:51:35;33.20;56.90
23507;DHT22;11930;53.076;18.250;2022-08-19T11:54:01;33.10;56.40
23507;DHT22;11930;53.076;18.250;2022-08-19T11:56:28;33.10;56.60
23507;DHT22;11930;53.076;18.250;2022-08-19T11:58:55;33.10;56.50
23507;DHT22;11930;53.076;18.250;2022-08-19T12:01:24;32.90;56.50
23507;DHT22;11930;53.076;18.250;2022-08-19T12:03:54;33.00;56.80
23507;DHT22;11930;53.076;18.250;2022-08-19T12:06:31;33.00;57.40
23507;DHT22;11930;53.076;18.250;2022-08-19T12:09:04;33.00;56.10
23507;DHT22;11930;53.076;18.250;2022-08-19T12:11:30;33.10;56.30
23507;DHT22;11930;53.076;18.250;2022-08-19T12:13:56;33.30;56.00
23507;DHT22;11930;53.076;18.250;2022-08-19T12:16:26;33.40;55.70
23507;DHT22;11930;53.076;18.250;2022-08-19T12:18:53;33.60;55.00
23507;DHT22;11930;53.076;18.250;2022-08-19T12:21:22;33.50;55.70
23507;DHT22;11930;53.076;18.250;2022-08-19T12:23:50;33.50;55.50
23507;DHT22;11930;53.076;18.250;2022-08-19T12:26:17;33.50;56.20
23507;DHT22;11930;53.076;18.250;2022-08-19T12:28:43;33.60;55.30
23507;DHT22;11930;53.076;18.250;2022-08-19T12:31:10;33.50;55.40
23507;DHT22;11930;53.076;18.250;2022-08-19T12:33:40;33.50;55.40
23507;DHT22;11930;53.076;18.250;2022-08-19T12:36:09;33.50;55.90
23507;DHT22;11930;53.076;18.250;2022-08-19T12:38:37;33.40;55.70
23507;DHT22;11930;53.076;18.250;2022-08-19T12:41:04;33.40;57.60
23507;DHT22;11930;53.076;18.250;2022-08-19T12:43:33;33.50;54.70
23507;DHT22;11930;53.076;18.250;2022-08-19T12:46:01;33.50;55.30
23507;DHT22;11930;53.076;18.250;2022-08-19T12:48:28;33.60;55.70
23507;DHT22;11930;53.076;18.250;2022-08-19T12:50:54;33.60;54.90
23507;DHT22;11930;53.076;18.250;2022-08-19T12:53:21;33.70;54.70
23507;DHT22;11930;53.076;18.250;2022-08-19T12:55:47;33.60;55.40
23507;DHT22;11930;53.076;18.250;2022-08-19T12:58:13;33.70;56.10
23507;DHT22;11930;53.076;18.250;2022-08-19T13:00:39;33.70;55.80
23507;DHT22;11930;53.076;18.250;2022-08-19T13:03:06;33.70;55.50
23507;DHT22;11930;53.076;18.250;2022-08-19T13:05:33;33.80;55.40
23507;DHT22;11930;53.076;18.250;2022-08-19T13:08:00;33.90;55.00
23507;DHT22;11930;53.076;18.250;2022-08-19T13:10:32;34.20;55.90
23507;DHT22;11930;53.076;18.250;2022-08-19T13:13:07;34.20;52.20
23507;DHT22;11930;53.076;18.250;2022-08-19T13:15:35;34.10;52.30
23507;DHT22;11930;53.076;18.250;2022-08-19T13:18:02;34.20;52.40
23507;DHT22;11930;53.076;18.250;2022-08-19T13:20:28;34.20;52.20
23507;DHT22;11930;53.076;18.250;2022-08-19T13:22:56;34.30;52.40
23507;DHT22;11930;53.076;18.250;2022-08-19T13:25:23;34.10;51.70
23507;DHT22;11930;53.076;18.250;2022-08-19T13:27:49;34.10;52.70
23507;DHT22;11930;53.076;18.250;2022-08-19T13:30:18;34.10;53.20
23507;DHT22;11930;53.076;18.250;2022-08-19T13:33:03;34.20;52.20
23507;DHT22;11930;53.076;18.250;2022-08-19T13:35:53;34.10;51.40
23507;DHT22;11930;53.076;18.250;2022-08-19T13:38:23;34.10;51.30
23507;DHT22;11930;53.076;18.250;2022-08-19T13:40:52;34.10;52.10
23507;DHT22;11930;53.076;18.250;2022-08-19T13:43:20;34.00;51.10
23507;DHT22;11930;53.076;18.250;2022-08-19T13:45:48;33.90;52.10
23507;DHT22;11930;53.076;18.250;2022-08-19T13:48:14;33.80;51.60
23507;DHT22;11930;53.076;18.250;2022-08-19T13:50:43;33.80;51.70
23507;DHT22;11930;53.076;18.250;2022-08-19T13:53:11;33.70;52.30
23507;DHT22;11930;53.076;18.250;2022-08-19T13:55:39;33.80;51.50
23507;DHT22;11930;53.076;18.250;2022-08-19T13:58:05;33.80;52.30
23507;DHT22;11930;53.076;18.250;2022-08-19T14:00:35;33.80;52.80
23507;DHT22;11930;53.076;18.250;2022-08-19T14:03:02;33.70;52.50
23507;DHT22;11930;53.076;18.250;2022-08-19T14:05:29;33.80;53.00
23507;DHT22;11930;53.076;18.250;2022-08-19T14:07:56;33.80;52.00
23507;DHT22;11930;53.076;18.250;2022-08-19T14:10:23;33.80;51.50
23507;DHT22;11930;53.076;18.250;2022-08-19T14:12:52;33.80;51.80
23507;DHT22;11930;53.076;18.250;2022-08-19T14:15:18;33.80;52.20
23507;DHT22;11930;53.076;18.250;2022-08-19T14:17:45;33.80;51.20
23507;DHT22;11930;53.076;18.250;2022-08-19T14:20:13;33.60;52.00
23507;DHT22;11930;53.076;18.250;2022-08-19T14:22:41;33.70;51.90
23507;DHT22;11930;53.076;18.250;2022-08-19T14:25:10;33.70;50.20
23507;DHT22;11930;53.076;18.250;2022-08-19T14:27:38;33.60;50.80
23507;DHT22;11930;53.076;18.250;2022-08-19T14:30:06;33.60;50.70
23507;DHT22;11930;53.076;18.250;2022-08-19T14:32:33;33.70;51.00
23507;DHT22;11930;53.076;18.250;2022-08-19T14:35:01;33.70;50.50
23507;DHT22;11930;53.076;18.250;2022-08-19T14:37:27;33.60;50.80
23507;DHT22;11930;53.076;18.250;2022-08-19T14:39:53;33.60;50.80
23507;DHT22;11930;53.076;18.250;2022-08-19T14:42:19;33.50;51.00
23507;DHT22;11930;53.076;18.250;2022-08-19T14:44:45;33.50;50.30
23507;DHT22;11930;53.076;18.250;2022-08-19T14:47:12;33.50;50.30
23507;DHT22;11930;53.076;18.250;2022-08-19T14:49:38;33.50;50.50
23507;DHT22;11930;53.076;18.250;2022-08-19T14:52:05;33.50;50.30
23507;DHT22;11930;53.076;18.250;2022-08-19T14:54:31;33.50;50.20
23507;DHT22;11930;53.076;18.250;2022-08-19T14:56:57;33.50;50.20
23507;DHT22;11930;53.076;18.250;2022-08-19T14:59:23;33.60;49.00
23507;DHT22;11930;53.076;18.250;2022-08-19T15:01:50;33.60;49.00
23507;DHT22;11930;53.076;18.250;2022-08-19T15:04:16;33.50;49.60
23507;DHT22;11930;53.076;18.250;2022-08-19T15:06:42;33.40;49.30
23507;DHT22;11930;53.076;18.250;2022-08-19T15:09:09;33.30;49.20
23507;DHT22;11930;53.076;18.250;2022-08-19T15:11:36;33.30;49.00
23507;DHT22;11930;53.076;18.250;2022-08-19T15:14:03;33.20;48.60
23507;DHT22;11930;53.076;18.250;2022-08-19T15:16:31;33.10;49.60
23507;DHT22;11930;53.076;18.250;2022-08-19T15:18:59;33.10;49.80
23507;DHT22;11930;53.076;18.250;2022-08-19T15:21:26;33.10;49.60
23507;DHT22;11930;53.076;18.250;2022-08-19T15:23:53;33.20;49.50
23507;DHT22;11930;53.076;18.250;2022-08-19T15:26:20;33.30;49.90
23507;DHT22;11930;53.076;18.250;2022-08-19T15:28:46;33.30;50.20
23507;DHT22;11930;53.076;18.250;2022-08-19T15:31:20;33.20;50.30